createdAt,value
2018-12-14T00:00:00.417Z,66.65
2018-12-14T00:02:33.350Z,66.67
2018-12-14T00:05:07.002Z,66.93
2018-12-14T00:07:39.911Z,66.92
2018-12-14T00:10:11.663Z,67.01
2018-12-14T00:12:42.597Z,66.38
2018-12-14T00:15:13.970Z,66.45
2018-12-14T00:17:44.854Z,66.88
2018-12-14T00:20:15.731Z,66.44
2018-12-14T00:22:46.585Z,66.70
2018-12-14T00:25:17.475Z,67.32
2018-12-14T00:27:48.660Z,66.55
2018-12-14T00:30:19.561Z,66.86
2018-12-14T00:32:50.538Z,67.06
2018-12-14T00:35:22.097Z,66.68
2018-12-14T00:37:53.033Z,67.94
2018-12-14T00:40:23.883Z,66.31
2018-12-14T00:42:54.796Z,66.03
2018-12-14T00:45:25.737Z,66.96
2018-12-14T00:47:57.341Z,66.69
2018-12-14T00:50:28.365Z,66.97
2018-12-14T00:52:59.242Z,66.12
2018-12-14T00:55:31.945Z,66.74
2018-12-14T00:58:03.410Z,67.04
2018-12-14T01:00:37.822Z,67.30
2018-12-14T01:03:08.726Z,66.84
2018-12-14T01:05:39.989Z,67.21
2018-12-14T01:08:10.897Z,66.42
2018-12-14T01:10:41.953Z,66.89
2018-12-14T01:13:12.880Z,67.01
2018-12-14T01:15:44.044Z,66.87
2018-12-14T01:18:14.965Z,66.75
2018-12-14T01:20:45.910Z,66.94
2018-12-14T01:23:16.853Z,66.70
2018-12-14T01:25:47.779Z,66.74
2018-12-14T01:28:18.713Z,66.32
2018-12-14T01:30:49.649Z,66.25
2018-12-14T01:33:20.576Z,66.73
2018-12-14T01:35:51.525Z,67.03
2018-12-14T01:38:22.457Z,66.15
2018-12-14T01:40:53.526Z,66.24
2018-12-14T01:43:24.369Z,66.90
2018-12-14T01:45:55.242Z,66.75
2018-12-14T01:48:26.122Z,67.30
2018-12-14T01:50:57.090Z,66.41
2018-12-14T01:53:27.946Z,67.40
2018-12-14T01:55:58.843Z,66.90
2018-12-14T01:58:29.684Z,66.03
2018-12-14T02:01:01.071Z,65.53
2018-12-14T02:03:31.937Z,65.55
2018-12-14T02:06:02.890Z,65.34
2018-12-14T02:08:34.252Z,65.44
2018-12-14T02:11:05.658Z,66.55
2018-12-14T02:13:36.843Z,65.59
2018-12-14T02:16:07.975Z,65.60
2018-12-14T02:18:38.830Z,65.48
2018-12-14T02:21:09.842Z,65.66
2018-12-14T02:23:40.690Z,65.29
2018-12-14T02:26:11.663Z,66.08
2018-12-14T02:28:42.582Z,65.37
2018-12-14T02:31:13.510Z,66.33
2018-12-14T02:33:44.426Z,65.35
2018-12-14T02:36:15.695Z,65.13
2018-12-14T02:38:46.605Z,65.37
2018-12-14T02:41:17.551Z,66.03
2018-12-14T02:43:49.967Z,65.37
2018-12-14T02:46:20.841Z,65.12
2018-12-14T02:48:51.702Z,65.91
2018-12-14T02:51:23.136Z,65.64
2018-12-14T02:53:54.070Z,65.79
2018-12-14T02:56:25.343Z,66.46
2018-12-14T02:58:56.174Z,65.78
2018-12-14T03:01:27.613Z,66.60
2018-12-14T03:03:58.499Z,66.62
2018-12-14T03:06:29.712Z,66.21
2018-12-14T03:09:01.035Z,66.37
2018-12-14T03:11:33.630Z,65.78
2018-12-14T03:14:05.587Z,66.35
2018-12-14T03:16:36.436Z,66.41
2018-12-14T03:19:07.511Z,66.04
2018-12-14T03:21:39.541Z,65.59
2018-12-14T03:24:10.357Z,66.48
2018-12-14T03:26:41.218Z,66.68
2018-12-14T03:29:12.062Z,66.44
2018-12-14T03:31:42.970Z,66.34
2018-12-14T03:34:13.810Z,66.35
2018-12-14T03:36:44.906Z,66.83
2018-12-14T03:39:16.003Z,66.58
2018-12-14T03:41:47.495Z,65.95
2018-12-14T03:44:18.399Z,66.74
2018-12-14T03:46:49.614Z,66.55
2018-12-14T03:49:20.584Z,66.79
2018-12-14T03:51:51.488Z,66.90
2018-12-14T03:54:22.358Z,66.54
2018-12-14T03:56:53.274Z,65.65
2018-12-14T03:59:24.534Z,66.69
2018-12-14T04:01:55.571Z,66.31
2018-12-14T04:04:26.497Z,66.38
2018-12-14T04:06:57.426Z,65.79
2018-12-14T04:09:28.698Z,65.60
2018-12-14T04:11:59.574Z,66.27
2018-12-14T04:14:30.571Z,66.24
2018-12-14T04:17:01.908Z,65.57
2018-12-14T04:19:32.955Z,65.70
2018-12-14T04:22:03.862Z,65.97
2018-12-14T04:24:34.715Z,65.48
2018-12-14T04:27:05.645Z,65.87
2018-12-14T04:29:37.420Z,65.85
2018-12-14T04:32:08.329Z,66.56
2018-12-14T04:34:39.187Z,65.92
2018-12-14T04:37:10.108Z,65.77
2018-12-14T04:39:40.980Z,65.93
2018-12-14T04:42:11.883Z,65.37
2018-12-14T04:44:42.639Z,65.61
2018-12-14T04:47:13.610Z,65.67
2018-12-14T04:49:45.459Z,66.43
2018-12-14T04:52:16.382Z,65.97
2018-12-14T04:54:47.628Z,66.24
2018-12-14T04:57:18.536Z,66.23
2018-12-14T04:59:49.916Z,65.08
2018-12-14T05:02:20.818Z,65.83
2018-12-14T05:04:52.164Z,65.11
2018-12-14T05:07:23.105Z,65.94
2018-12-14T05:09:54.054Z,65.87
2018-12-14T05:12:24.990Z,65.53
2018-12-14T05:14:56.275Z,65.90
2018-12-14T05:17:27.815Z,65.44
2018-12-14T05:19:58.846Z,66.10
2018-12-14T05:22:29.857Z,65.45
2018-12-14T05:25:01.138Z,65.94
2018-12-14T05:27:32.630Z,65.80
2018-12-14T05:30:06.015Z,65.05
2018-12-14T05:32:36.893Z,64.64
2018-12-14T05:35:08.293Z,65.14
2018-12-14T05:37:39.181Z,65.52
2018-12-14T05:40:10.457Z,65.74
2018-12-14T05:42:41.701Z,65.63
2018-12-14T05:45:12.551Z,66.05
2018-12-14T05:47:43.724Z,66.15
2018-12-14T05:50:14.557Z,65.35
2018-12-14T05:52:45.405Z,65.82
2018-12-14T05:55:16.357Z,65.87
2018-12-14T05:57:47.242Z,65.54
2018-12-14T06:00:18.797Z,64.90
2018-12-14T06:02:51.321Z,65.62
2018-12-14T06:05:26.889Z,65.16
2018-12-14T06:07:59.818Z,65.25
2018-12-14T06:10:30.807Z,65.01
2018-12-14T06:13:02.194Z,65.42
2018-12-14T06:15:33.463Z,65.31
2018-12-14T06:18:08.625Z,65.15
2018-12-14T06:20:40.038Z,65.39
2018-12-14T06:23:10.919Z,64.67
2018-12-14T06:25:42.674Z,65.49
2018-12-14T06:28:13.716Z,65.97
2018-12-14T06:30:44.589Z,65.18
2018-12-14T06:33:15.514Z,65.13
2018-12-14T06:35:46.417Z,65.89
2018-12-14T06:38:17.406Z,65.30
2018-12-14T06:40:48.398Z,65.46
2018-12-14T06:43:19.309Z,66.04
2018-12-14T06:45:50.226Z,65.52
2018-12-14T06:48:21.094Z,65.81
2018-12-14T06:50:52.297Z,66.16
2018-12-14T06:53:23.185Z,66.46
2018-12-14T06:55:54.149Z,65.66
2018-12-14T06:58:25.570Z,65.93
2018-12-14T07:00:56.431Z,64.76
2018-12-14T07:03:28.228Z,66.09
2018-12-14T07:05:59.067Z,64.99
2018-12-14T07:08:31.301Z,64.75
2018-12-14T07:11:02.538Z,65.46
2018-12-14T07:13:39.998Z,66.00
2018-12-14T07:16:10.948Z,65.75
2018-12-14T07:18:41.817Z,65.79
2018-12-14T07:21:12.734Z,66.43
2018-12-14T07:23:43.680Z,65.35
2018-12-14T07:26:14.581Z,65.36
2018-12-14T07:28:45.701Z,65.45
2018-12-14T07:31:16.674Z,65.42
2018-12-14T07:33:47.734Z,66.17
2018-12-14T07:36:19.028Z,65.09
2018-12-14T07:38:49.940Z,65.50
2018-12-14T07:41:20.824Z,65.53
2018-12-14T07:43:51.997Z,65.06
2018-12-14T07:46:23.317Z,65.44
2018-12-14T07:48:54.415Z,65.54
2018-12-14T07:51:25.314Z,65.61
2018-12-14T07:53:56.277Z,65.91
2018-12-14T07:56:27.660Z,65.90
2018-12-14T07:58:59.374Z,66.18
2018-12-14T08:01:30.243Z,66.24
2018-12-14T08:04:01.150Z,65.40
2018-12-14T08:06:32.009Z,65.41
2018-12-14T08:09:03.249Z,66.00
2018-12-14T08:11:36.044Z,64.66
2018-12-14T08:14:06.894Z,65.17
2018-12-14T08:16:38.014Z,64.92
2018-12-14T08:19:08.964Z,64.58
2018-12-14T08:21:39.842Z,65.50
2018-12-14T08:24:10.774Z,64.56
2018-12-14T08:26:41.725Z,65.34
2018-12-14T08:29:12.664Z,65.01
2018-12-14T08:31:43.876Z,65.06
2018-12-14T08:34:14.746Z,64.91
2018-12-14T08:36:45.870Z,64.44
2018-12-14T08:39:16.817Z,64.07
2018-12-14T08:41:48.153Z,64.59
2018-12-14T08:44:19.003Z,64.09
2018-12-14T08:46:49.954Z,65.15
2018-12-14T08:49:20.879Z,64.06
2018-12-14T08:51:51.826Z,64.55
2018-12-14T08:54:23.144Z,64.77
2018-12-14T08:56:54.089Z,65.16
2018-12-14T08:59:25.029Z,65.56
2018-12-14T09:01:56.510Z,64.98
2018-12-14T09:04:27.413Z,64.78
2018-12-14T09:06:58.267Z,63.70
2018-12-14T09:09:29.129Z,64.37
2018-12-14T09:12:00.472Z,64.57
2018-12-14T09:14:31.330Z,64.56
2018-12-14T09:17:02.189Z,63.63
2018-12-14T09:19:33.056Z,63.60
2018-12-14T09:22:04.401Z,62.75
2018-12-14T09:24:35.353Z,63.94
2018-12-14T09:27:06.366Z,64.26
2018-12-14T09:29:37.221Z,63.84
2018-12-14T09:32:08.141Z,63.00
2018-12-14T09:34:39.751Z,64.06
2018-12-14T09:37:10.606Z,63.09
2018-12-14T09:39:42.305Z,63.79
2018-12-14T09:42:13.245Z,63.20
2018-12-14T09:44:44.085Z,63.44
2018-12-14T09:47:15.129Z,63.45
2018-12-14T09:49:47.153Z,62.95
2018-12-14T09:52:18.021Z,64.19
2018-12-14T09:54:48.949Z,62.91
2018-12-14T09:57:19.890Z,63.60
2018-12-14T09:59:50.821Z,63.68
2018-12-14T10:02:21.780Z,63.84
2018-12-14T10:04:52.695Z,63.46
2018-12-14T10:07:24.077Z,63.88
2018-12-14T10:09:54.914Z,63.01
2018-12-14T10:12:25.839Z,63.85
2018-12-14T10:14:56.761Z,64.01
2018-12-14T10:17:28.849Z,63.73
2018-12-14T10:19:59.702Z,63.09
2018-12-14T10:22:32.490Z,63.98
2018-12-14T10:25:03.386Z,63.54
2018-12-14T10:27:34.309Z,63.47
2018-12-14T10:30:06.802Z,62.84
2018-12-14T10:32:37.734Z,62.98
2018-12-14T10:35:11.035Z,62.87
2018-12-14T10:37:42.065Z,63.25
2018-12-14T10:40:13.927Z,63.03
2018-12-14T10:42:44.946Z,63.18
2018-12-14T10:45:15.904Z,62.29
2018-12-14T10:47:46.813Z,61.85
2018-12-14T10:50:17.994Z,62.50
2018-12-14T10:52:48.846Z,62.22
2018-12-14T10:55:19.781Z,61.26
2018-12-14T10:57:51.313Z,62.59
2018-12-14T11:00:27.294Z,62.01
2018-12-14T11:02:58.188Z,62.33
2018-12-14T11:05:29.546Z,62.03
2018-12-14T11:08:00.433Z,62.84
2018-12-14T11:10:31.300Z,61.17
2018-12-14T11:13:02.172Z,62.05
2018-12-14T11:15:33.094Z,62.16
2018-12-14T11:18:04.048Z,61.94
2018-12-14T11:20:34.968Z,62.24
2018-12-14T11:23:05.834Z,62.45
2018-12-14T11:25:37.415Z,62.08
2018-12-14T11:28:08.322Z,61.89
2018-12-14T11:30:39.165Z,62.22
2018-12-14T11:33:10.039Z,61.99
2018-12-14T11:35:40.869Z,60.61
2018-12-14T11:38:11.755Z,61.07
2018-12-14T11:40:42.677Z,62.05
2018-12-14T11:43:13.619Z,61.19
2018-12-14T11:45:44.546Z,61.33
2018-12-14T11:48:15.506Z,61.51
2018-12-14T11:50:46.461Z,62.54
2018-12-14T11:53:20.268Z,62.21
2018-12-14T11:55:51.693Z,61.18
2018-12-14T11:58:22.637Z,60.85
2018-12-14T12:00:53.555Z,61.22
2018-12-14T12:03:24.473Z,61.98
2018-12-14T12:05:56.057Z,60.73
2018-12-14T12:08:26.923Z,61.77
2018-12-14T12:10:57.834Z,61.70
2018-12-14T12:13:28.864Z,61.68
2018-12-14T12:15:59.830Z,61.41
2018-12-14T12:18:30.718Z,61.48
2018-12-14T12:21:02.117Z,62.16
2018-12-14T12:23:33.446Z,61.58
2018-12-14T12:26:04.991Z,62.10
2018-12-14T12:28:36.829Z,61.57
2018-12-14T12:31:07.980Z,61.79
2018-12-14T12:33:38.842Z,62.60
2018-12-14T12:36:09.759Z,63.35
2018-12-14T12:38:40.595Z,63.34
2018-12-14T12:41:11.536Z,61.85
2018-12-14T12:43:42.519Z,62.89
2018-12-14T12:46:13.610Z,62.53
2018-12-14T12:48:45.118Z,62.90
2018-12-14T12:51:16.739Z,62.46
2018-12-14T12:53:47.611Z,62.92
2018-12-14T12:56:19.130Z,63.02
2018-12-14T12:58:50.082Z,63.48
2018-12-14T13:01:20.981Z,62.66
2018-12-14T13:03:52.912Z,62.40
2018-12-14T13:06:23.739Z,62.32
2018-12-14T13:08:55.238Z,62.52
2018-12-14T13:11:26.178Z,63.03
2018-12-14T13:13:57.145Z,63.38
2018-12-14T13:16:28.055Z,62.66
2018-12-14T13:18:58.975Z,62.49
2018-12-14T13:21:29.854Z,63.16
2018-12-14T13:24:00.759Z,63.08
2018-12-14T13:26:31.627Z,63.58
2018-12-14T13:29:02.867Z,63.72
2018-12-14T13:31:33.730Z,63.92
2018-12-14T13:34:06.889Z,63.37
2018-12-14T13:36:38.019Z,63.32
2018-12-14T13:39:09.078Z,64.38
2018-12-14T13:41:40.361Z,64.37
2018-12-14T13:44:11.256Z,64.44
2018-12-14T13:46:42.186Z,63.94
2018-12-14T13:49:13.436Z,63.91
2018-12-14T13:51:44.541Z,62.96
2018-12-14T13:54:15.376Z,62.91
2018-12-14T13:56:46.358Z,62.97
2018-12-14T13:59:17.193Z,63.64
2018-12-14T14:01:48.317Z,63.51
2018-12-14T14:04:19.216Z,63.10
2018-12-14T14:06:50.116Z,63.34
2018-12-14T14:09:21.647Z,63.78
2018-12-14T14:11:52.829Z,63.19
2018-12-14T14:14:24.753Z,64.41
2018-12-14T14:16:56.316Z,63.95
2018-12-14T14:19:27.574Z,63.79
2018-12-14T14:21:58.462Z,64.18
2018-12-14T14:24:30.659Z,63.87
2018-12-14T14:27:01.514Z,63.42
2018-12-14T14:29:32.441Z,64.07
2018-12-14T14:32:03.277Z,64.56
2018-12-14T14:34:34.198Z,63.50
2018-12-14T14:37:05.517Z,63.91
2018-12-14T14:39:36.543Z,64.31
2018-12-14T14:42:08.790Z,64.33
2018-12-14T14:44:39.706Z,63.61
2018-12-14T14:47:10.609Z,64.31
2018-12-14T14:49:41.990Z,64.27
2018-12-14T14:52:12.904Z,63.59
2018-12-14T14:54:43.855Z,64.26
2018-12-14T14:57:14.719Z,63.32
2018-12-14T14:59:45.741Z,63.52
2018-12-14T15:02:16.605Z,63.24
2018-12-14T15:04:47.502Z,64.45
2018-12-14T15:07:18.412Z,63.68
2018-12-14T15:09:49.369Z,63.35
2018-12-14T15:12:20.302Z,63.36
2018-12-14T15:14:51.348Z,63.70
2018-12-14T15:17:22.290Z,63.29
2018-12-14T15:19:53.232Z,62.80
2018-12-14T15:22:24.147Z,63.64
2018-12-14T15:24:55.729Z,63.75
2018-12-14T15:27:26.680Z,63.42
2018-12-14T15:29:57.589Z,63.40
2018-12-14T15:32:29.377Z,64.03
2018-12-14T15:35:00.374Z,63.13
2018-12-14T15:37:31.646Z,64.01
2018-12-14T15:40:02.566Z,63.23
2018-12-14T15:42:33.530Z,63.73
2018-12-14T15:45:05.480Z,63.72
2018-12-14T15:47:36.414Z,63.52
2018-12-14T15:50:08.489Z,64.29
2018-12-14T15:52:39.817Z,63.82
2018-12-14T15:55:11.088Z,64.71
2018-12-14T15:57:43.063Z,63.95
2018-12-14T16:00:14.760Z,64.51
2018-12-14T16:02:45.847Z,64.41
2018-12-14T16:05:16.814Z,65.05
2018-12-14T16:07:48.347Z,64.26
2018-12-14T16:10:19.229Z,64.32
2018-12-14T16:12:51.124Z,63.54
2018-12-14T16:15:22.047Z,64.40
2018-12-14T16:17:54.061Z,63.69
2018-12-14T16:20:25.171Z,63.64
2018-12-14T16:22:56.166Z,63.99
2018-12-14T16:25:27.020Z,63.41
2018-12-14T16:27:58.242Z,63.50
2018-12-14T16:30:29.080Z,64.14
2018-12-14T16:33:00.063Z,64.25
2018-12-14T16:35:37.793Z,63.48
2018-12-14T16:38:08.681Z,63.29
2018-12-14T16:40:40.071Z,64.07
2018-12-14T16:43:12.090Z,63.12
2018-12-14T16:45:43.086Z,63.68
2018-12-14T16:48:15.078Z,63.60
2018-12-14T16:50:47.958Z,64.09
2018-12-14T16:53:21.340Z,63.39
2018-12-14T16:55:54.758Z,64.03
2018-12-14T16:58:25.744Z,63.79
2018-12-14T17:00:57.227Z,63.58
2018-12-14T17:03:30.493Z,63.48
2018-12-14T17:06:09.942Z,63.24
2018-12-14T17:08:41.885Z,64.64
2018-12-14T17:11:17.273Z,63.99
2018-12-14T17:13:49.223Z,64.17
2018-12-14T17:16:22.417Z,63.27
2018-12-14T17:18:56.405Z,64.11
2018-12-14T17:21:28.729Z,63.97
2018-12-14T17:24:01.002Z,63.55
2018-12-14T17:26:32.582Z,63.76
2018-12-14T17:29:05.762Z,63.52
2018-12-14T17:31:36.652Z,63.23
2018-12-14T17:34:08.039Z,63.58
2018-12-14T17:36:40.351Z,63.31
2018-12-14T17:39:14.750Z,62.54
2018-12-14T17:41:54.247Z,62.30
2018-12-14T17:44:28.415Z,62.73
2018-12-14T17:46:59.430Z,63.34
2018-12-14T17:49:32.056Z,63.62
2018-12-14T17:52:03.251Z,63.36
2018-12-14T17:54:36.637Z,63.75
2018-12-14T17:57:09.234Z,63.48
2018-12-14T17:59:42.216Z,62.84
2018-12-14T18:02:16.422Z,62.70
2018-12-14T18:04:50.064Z,62.96
2018-12-14T18:07:21.255Z,63.23
2018-12-14T18:09:53.029Z,63.03
2018-12-14T18:12:27.170Z,62.88
2018-12-14T18:15:02.511Z,62.86
2018-12-14T18:17:36.775Z,62.30
2018-12-14T18:20:09.432Z,62.50
2018-12-14T18:22:43.187Z,63.00
2018-12-14T18:25:16.321Z,63.23
2018-12-14T18:27:48.461Z,62.81
2018-12-14T18:30:19.367Z,62.48
2018-12-14T18:32:56.158Z,63.53
2018-12-14T18:35:28.653Z,63.86
2018-12-14T18:38:00.612Z,63.83
2018-12-14T18:40:35.067Z,64.32
2018-12-14T18:43:08.775Z,64.27
2018-12-14T18:45:40.752Z,63.39
2018-12-14T18:48:16.586Z,63.04
2018-12-14T18:50:47.513Z,62.94
2018-12-14T18:53:20.847Z,63.40
2018-12-14T18:55:56.387Z,62.89
2018-12-14T18:58:28.886Z,63.36
2018-12-14T19:01:00.806Z,64.16
2018-12-14T19:03:32.504Z,63.53
2018-12-14T19:06:05.209Z,63.59
2018-12-14T19:08:38.392Z,62.98
2018-12-14T19:11:09.713Z,62.93
2018-12-14T19:13:40.958Z,63.41
2018-12-14T19:16:11.857Z,62.70
2018-12-14T19:21:30.914Z,62.80
2018-12-14T19:24:04.581Z,63.15
2018-12-14T19:26:36.335Z,63.03
2018-12-14T19:29:07.367Z,63.35
2018-12-14T19:31:38.513Z,63.29
2018-12-14T19:34:10.711Z,63.80
2018-12-14T19:36:45.915Z,63.53
2018-12-14T19:39:17.314Z,63.51
2018-12-14T19:41:49.695Z,63.57
2018-12-14T19:44:20.821Z,62.83
2018-12-14T19:46:53.980Z,62.45
2018-12-14T19:49:25.110Z,62.14
2018-12-14T19:51:57.625Z,62.45
2018-12-14T19:54:29.189Z,62.22
2018-12-14T19:57:01.781Z,63.35
2018-12-14T19:59:33.273Z,63.17
2018-12-14T20:02:06.195Z,63.42
2018-12-14T20:04:38.717Z,62.68
2018-12-14T20:07:09.802Z,62.51
2018-12-14T20:09:40.850Z,62.66
2018-12-14T20:12:12.243Z,62.58
2018-12-14T20:14:44.300Z,61.94
2018-12-14T20:17:15.863Z,62.73
2018-12-14T20:19:47.693Z,61.83
2018-12-14T20:22:20.388Z,62.72
2018-12-14T20:24:51.301Z,62.96
2018-12-14T20:27:23.853Z,62.69
2018-12-14T20:29:54.751Z,61.67
2018-12-14T20:32:25.925Z,61.64
2018-12-14T20:34:57.299Z,62.09
2018-12-14T20:37:28.298Z,62.20
2018-12-14T20:39:59.418Z,61.97
2018-12-14T20:42:31.386Z,62.22
2018-12-14T20:45:04.270Z,62.75
2018-12-14T20:47:35.518Z,62.85
2018-12-14T20:50:08.206Z,62.12
2018-12-14T20:52:40.469Z,62.48
2018-12-14T20:55:11.796Z,62.76
2018-12-14T20:57:42.705Z,63.26
2018-12-14T21:00:14.298Z,63.43
2018-12-14T21:02:46.043Z,62.31
2018-12-14T21:05:17.732Z,61.75
2018-12-14T21:07:49.740Z,63.02
2018-12-14T21:10:20.842Z,62.45
2018-12-14T21:12:51.858Z,62.34
2018-12-14T21:15:23.531Z,61.85
2018-12-14T21:17:54.859Z,61.84
2018-12-14T21:20:25.806Z,62.47
2018-12-14T21:22:57.037Z,62.36
2018-12-14T21:25:27.965Z,62.12
2018-12-14T21:28:00.430Z,61.64
2018-12-14T21:30:31.494Z,61.90
2018-12-14T21:33:02.430Z,62.18
2018-12-14T21:35:33.366Z,62.15
2018-12-14T21:38:04.427Z,62.27
2018-12-14T21:40:35.462Z,61.81
2018-12-14T21:43:06.562Z,63.52
2018-12-14T21:45:38.498Z,62.31
2018-12-14T21:48:10.463Z,63.51
2018-12-14T21:50:41.434Z,64.67
2018-12-14T21:53:14.565Z,64.27
2018-12-14T21:55:45.506Z,64.78
2018-12-14T21:58:16.858Z,62.42
2018-12-14T22:00:47.761Z,62.67
2018-12-14T22:03:18.690Z,63.86
2018-12-14T22:05:49.639Z,63.91
2018-12-14T22:08:20.580Z,62.60
2018-12-14T22:10:52.850Z,62.61
2018-12-14T22:13:25.417Z,63.16
2018-12-14T22:15:58.140Z,62.78
2018-12-14T22:18:29.058Z,62.26
2018-12-14T22:21:00.792Z,62.25
2018-12-14T22:23:32.247Z,62.65
2018-12-14T22:26:03.274Z,63.67
2018-12-14T22:28:34.575Z,63.53
2018-12-14T22:31:05.558Z,64.05
2018-12-14T22:33:36.517Z,64.10
2018-12-14T22:36:07.959Z,64.59
2018-12-14T22:38:38.864Z,64.22
2018-12-14T22:41:09.854Z,65.58
2018-12-14T22:43:41.262Z,65.34
2018-12-14T22:46:12.258Z,66.24
2018-12-14T22:48:43.662Z,65.36
2018-12-14T22:51:14.625Z,65.77
2018-12-14T22:53:45.530Z,65.90
2018-12-14T22:56:16.490Z,65.46
2018-12-14T22:58:47.413Z,65.28
2018-12-14T23:01:19.719Z,64.98
2018-12-14T23:03:50.635Z,63.96
2018-12-14T23:06:22.202Z,63.42
2018-12-14T23:08:53.102Z,63.91
2018-12-14T23:11:25.873Z,63.06
2018-12-14T23:13:56.754Z,63.67
2018-12-14T23:16:27.699Z,64.29
2018-12-14T23:18:58.685Z,63.69
2018-12-14T23:21:29.638Z,64.26
2018-12-14T23:24:00.561Z,65.44
2018-12-14T23:26:32.869Z,65.69
2018-12-14T23:29:03.788Z,65.35
2018-12-14T23:31:35.677Z,65.57
2018-12-14T23:34:07.132Z,66.48
2018-12-14T23:36:38.009Z,65.52
2018-12-14T23:39:08.957Z,66.12
2018-12-14T23:41:54.054Z,66.47
2018-12-14T23:44:24.982Z,66.30
2018-12-14T23:46:58.935Z,66.17
2018-12-14T23:49:29.724Z,65.34
2018-12-14T23:52:00.773Z,66.87
2018-12-14T23:54:31.699Z,67.48
2018-12-14T23:57:02.879Z,67.54
2018-12-14T23:59:33.792Z,68.14
